Terminal Aerodrome Forecast
Issued by NWS Paducah, KY

Home | Current Version | Previous Version | Text Only | Print | Product List | Glossary On
Versions: 1 2 3 4 5 6 7 8 9 10 11 12 13 14 15
000
FTUS43 KPAH 302123 AAA
TAFEVV
TAF AMD
KEVV 302123Z 3021/3118 19004KT P6SM VCTS SCT040CB BKN070
     FM310000 VRB03KT P6SM SCT050 BKN100
      TEMPO 3109/3112 5SM BR
     FM311400 20005KT P6SM SCT040 BKN100=

USA.gov is the U.S. government's official web portal to all federal, state and local government web resources and services.